»·PEaware :: N210AR KTOA-0O2

N210AR :: KTOA-0O2

FLIGHT INFORMATION

Flight Status: Arrived
Operator: Privately registered:
United States
More flights under this callsign
Pilot: Max S. (16657)
Aircraft: CESSNA 172 SKYHAWK
(C172)
More flights by this aircraft type
Origin: KTOA Zamperini
United States
Destination: 0O2 Baker
United States
More flights between these airports :: More routes between these airports
Route: KSNA
File this flight plan on PilotEdge
Remarks: ALPHABET CHALLENGE
Altitude:
(Current/Filed)
7,500ft
Speed:
(Current/Filed)
110kts
Departed: 30-Dec-19 08:42 AM
Arrived: 30-Dec-19 10:31 AM
Distance/Time
Traveled:
143nm/1:48
Distance/Time
To Go:
Arrived

Flight Plot

Page will automatically refresh every two minutes.

Flight plan parsing failed; only flown route is shown


Map Options




Map Legend


Flown Route
Filed Route
Departure Airport
Arrival Airport
Navaid (VOR, NDB)
Fix

Horizontal Profiles

Position Reports

Time Latitude Longitude Heading Altitude Ground
Speed
30-Dec-19 07:55 33.801601 -118.341420 218 97ft 0kts
30-Dec-19 07:56 33.801601 -118.341420 218 97ft 0kts
30-Dec-19 07:57 33.801601 -118.341420 218 97ft 0kts
30-Dec-19 07:58 33.801601 -118.341420 218 97ft 0kts
30-Dec-19 07:59 33.801601 -118.341420 218 97ft 0kts
30-Dec-19 08:00 33.801601 -118.341420 218 97ft 0kts
30-Dec-19 08:01 33.801601 -118.341420 218 97ft 0kts
30-Dec-19 08:02 33.801601 -118.341420 218 97ft 0kts
30-Dec-19 08:03 33.801601 -118.341420 218 97ft 0kts
30-Dec-19 08:04 33.801601 -118.341420 218 97ft 0kts
30-Dec-19 08:05 33.801601 -118.341420 218 97ft 0kts
30-Dec-19 08:06 33.801601 -118.341420 218 97ft 0kts
30-Dec-19 08:07 33.801601 -118.341420 218 97ft 0kts
30-Dec-19 08:08 33.801601 -118.341420 218 97ft 0kts
30-Dec-19 08:09 33.801601 -118.341420 218 97ft 0kts
30-Dec-19 08:10 33.801601 -118.341420 218 97ft 0kts
30-Dec-19 08:11 33.801601 -118.341420 218 97ft 0kts
30-Dec-19 08:12 33.801601 -118.341420 218 97ft 0kts
30-Dec-19 08:13 33.801601 -118.341420 218 97ft 0kts
30-Dec-19 08:14 33.801601 -118.341420 218 97ft 0kts
30-Dec-19 08:15 33.801601 -118.341420 218 97ft 0kts
30-Dec-19 08:16 33.801601 -118.341420 218 97ft 0kts
30-Dec-19 08:17 33.801601 -118.341420 218 97ft 0kts
30-Dec-19 08:18 33.801601 -118.341420 218 97ft 0kts
30-Dec-19 08:19 33.801601 -118.341420 218 97ft 0kts
30-Dec-19 08:24 33.801601 -118.341420 218 97ft 0kts
30-Dec-19 08:25 33.801601 -118.341420 218 97ft 0kts
30-Dec-19 08:26 33.801601 -118.341420 218 97ft 0kts
30-Dec-19 08:27 33.801601 -118.341420 218 97ft 0kts
30-Dec-19 08:28 33.801596 -118.341425 217 97ft 0kts
30-Dec-19 08:29 33.801400 -118.341268 125 97ft 5kts
30-Dec-19 08:30 33.800980 -118.340715 128 97ft 7kts
30-Dec-19 08:32 33.800866 -118.340525 126 97ft 8kts
30-Dec-19 08:33 33.800321 -118.339200 131 97ft 10kts
30-Dec-19 08:34 33.798915 -118.337086 126 97ft 12kts
30-Dec-19 08:35 33.797739 -118.335350 128 97ft 8kts
30-Dec-19 08:36 33.798160 -118.335966 307 97ft 19kts
30-Dec-19 08:37 33.799324 -118.337245 36 97ft 5kts
30-Dec-19 08:38 33.799751 -118.336847 34 97ft 0kts
30-Dec-19 08:39 33.799751 -118.336847 34 97ft 0kts
30-Dec-19 08:40 33.799751 -118.336847 34 97ft 0kts
30-Dec-19 08:41 33.799803 -118.336804 33 97ft 3kts
30-Dec-19 08:42 33.802973 -118.340677 307 108ft 71kts
30-Dec-19 08:43 33.809784 -118.351129 292 618ft 59kts
30-Dec-19 08:44 33.799430 -118.359045 189 1116ft 65kts
30-Dec-19 08:45 33.782718 -118.361574 186 1669ft 70kts
30-Dec-19 08:46 33.769859 -118.352663 105 2220ft 72kts
30-Dec-19 08:47 33.768134 -118.335583 89 2663ft 73kts
30-Dec-19 08:48 33.765868 -118.317906 102 3030ft 82kts
30-Dec-19 08:49 33.762253 -118.299021 103 3383ft 88kts
30-Dec-19 08:50 33.758200 -118.278361 103 3741ft 92kts
30-Dec-19 08:51 33.753825 -118.256177 103 4109ft 97kts
30-Dec-19 08:51 33.750098 -118.237496 101 4407ft 99kts
30-Dec-19 08:53 33.744508 -118.209064 101 4848ft 99kts
30-Dec-19 08:54 33.739432 -118.183373 101 5248ft 97kts
30-Dec-19 08:54 33.734724 -118.159602 101 5444ft 109kts
30-Dec-19 08:56 33.728171 -118.126655 101 5429ft 109kts
30-Dec-19 08:56 33.723820 -118.104660 101 5410ft 108kts
30-Dec-19 08:57 33.718737 -118.079143 101 5390ft 108kts
30-Dec-19 08:58 33.713798 -118.054317 101 5484ft 104kts
30-Dec-19 08:59 33.709050 -118.030485 102 5482ft 105kts
30-Dec-19 09:00 33.705088 -118.010617 100 5715ft 88kts
30-Dec-19 09:01 33.707415 -117.995525 67 5973ft 73kts
30-Dec-19 09:02 33.711793 -117.984255 67 6216ft 60kts
30-Dec-19 09:03 33.720623 -117.986911 10 6056ft 106kts
30-Dec-19 09:04 33.725604 -117.973123 73 6408ft 68kts
30-Dec-19 09:05 33.731692 -117.962709 55 6619ft 73kts
30-Dec-19 09:06 33.739138 -117.952457 53 6827ft 77kts
30-Dec-19 09:07 33.746557 -117.941839 56 7061ft 76kts
30-Dec-19 09:08 33.754108 -117.930986 54 7270ft 79kts
30-Dec-19 09:09 33.763359 -117.921235 46 7489ft 80kts
30-Dec-19 09:10 33.774062 -117.910482 46 7505ft 101kts
30-Dec-19 09:11 33.786632 -117.896439 48 7499ft 111kts
30-Dec-19 09:12 33.801763 -117.878859 48 7496ft 115kts
30-Dec-19 09:13 33.815747 -117.862462 49 7492ft 110kts
30-Dec-19 09:14 33.829960 -117.845744 49 7495ft 109kts
30-Dec-19 09:15 33.841140 -117.826622 101 7496ft 102kts
30-Dec-19 09:16 33.846314 -117.802669 74 7501ft 104kts
30-Dec-19 09:17 33.853304 -117.777895 75 7504ft 105kts
30-Dec-19 09:18 33.861018 -117.750538 74 7508ft 105kts
30-Dec-19 09:19 33.869278 -117.721811 75 7512ft 105kts
30-Dec-19 09:20 33.876419 -117.696075 75 7516ft 105kts
30-Dec-19 09:21 33.884071 -117.668005 76 7529ft 104kts
30-Dec-19 09:22 33.891291 -117.641273 77 7534ft 104kts
30-Dec-19 09:23 33.898504 -117.614377 78 7538ft 104kts
30-Dec-19 09:24 33.905811 -117.587121 77 7540ft 105kts
30-Dec-19 09:25 33.913023 -117.560165 77 7539ft 105kts
30-Dec-19 09:26 33.920348 -117.533361 67 7535ft 107kts
30-Dec-19 09:27 33.938903 -117.513092 46 7536ft 110kts
30-Dec-19 09:28 33.955882 -117.495523 46 7534ft 110kts
30-Dec-19 09:29 33.971833 -117.479018 45 7533ft 109kts
30-Dec-19 09:30 33.987392 -117.462936 45 7533ft 108kts
30-Dec-19 09:31 34.003265 -117.446518 44 7532ft 108kts
30-Dec-19 09:32 34.019038 -117.430206 44 7533ft 107kts
30-Dec-19 09:33 34.034620 -117.414080 44 7534ft 107kts
30-Dec-19 09:34 34.050261 -117.397885 43 7535ft 107kts
30-Dec-19 09:35 34.066004 -117.381576 43 7536ft 106kts
30-Dec-19 09:36 34.081461 -117.365557 43 7539ft 106kts
30-Dec-19 09:37 34.096828 -117.349619 43 7540ft 106kts
30-Dec-19 09:38 34.110799 -117.335132 43 7542ft 106kts
30-Dec-19 09:39 34.125511 -117.319867 43 7542ft 107kts
30-Dec-19 09:40 34.141070 -117.303723 43 7546ft 107kts
30-Dec-19 09:41 34.157581 -117.286539 43 7542ft 109kts
30-Dec-19 09:42 34.175745 -117.267642 43 7541ft 109kts
30-Dec-19 09:43 34.195487 -117.247097 43 7541ft 109kts
30-Dec-19 09:44 34.215585 -117.226175 43 7541ft 109kts
30-Dec-19 09:45 34.235513 -117.205413 43 7541ft 109kts
30-Dec-19 09:46 34.256754 -117.183276 43 7535ft 110kts
30-Dec-19 09:47 34.280265 -117.158740 43 7479ft 110kts
30-Dec-19 09:48 34.307565 -117.137582 33 7479ft 110kts
30-Dec-19 09:49 34.336933 -117.117076 33 7477ft 110kts
30-Dec-19 09:50 34.365950 -117.096829 33 7477ft 110kts
30-Dec-19 09:51 34.394711 -117.076721 33 7477ft 111kts
30-Dec-19 09:52 34.422422 -117.053031 41 7485ft 110kts
30-Dec-19 09:53 34.448821 -117.025753 43 7495ft 110kts
30-Dec-19 09:54 34.474553 -116.997881 43 7505ft 110kts
30-Dec-19 09:55 34.500560 -116.969343 43 7516ft 111kts
30-Dec-19 09:56 34.527007 -116.940203 43 7526ft 111kts
30-Dec-19 09:57 34.553315 -116.911168 43 7537ft 112kts
30-Dec-19 09:58 34.578392 -116.883461 43 7541ft 112kts
30-Dec-19 09:59 34.603404 -116.855806 43 7543ft 112kts
30-Dec-19 10:00 34.628772 -116.827737 43 7546ft 112kts
30-Dec-19 10:01 34.655253 -116.798377 43 7531ft 112kts
30-Dec-19 10:02 34.682203 -116.768497 43 7535ft 112kts
30-Dec-19 10:03 34.709091 -116.738654 43 7538ft 112kts
30-Dec-19 10:04 34.736208 -116.708528 43 7542ft 112kts
30-Dec-19 10:05 34.763538 -116.678135 44 7546ft 111kts
30-Dec-19 10:06 34.788578 -116.650262 44 7549ft 111kts
30-Dec-19 10:07 34.813996 -116.621944 44 7550ft 111kts
30-Dec-19 10:08 34.840259 -116.592659 44 7550ft 111kts
30-Dec-19 10:09 34.866863 -116.562968 44 7550ft 111kts
30-Dec-19 10:10 34.893747 -116.532934 44 7549ft 111kts
30-Dec-19 10:11 34.921451 -116.501954 43 7549ft 111kts
30-Dec-19 10:12 34.948338 -116.468711 46 7549ft 110kts
30-Dec-19 10:13 34.968692 -116.430016 60 7549ft 110kts
30-Dec-19 10:14 34.987919 -116.389435 59 7549ft 110kts
30-Dec-19 10:15 35.006748 -116.349556 60 7554ft 109kts
30-Dec-19 10:16 35.026055 -116.308397 60 6976ft 119kts
30-Dec-19 10:17 35.045251 -116.267193 59 6383ft 118kts
30-Dec-19 10:18 35.065724 -116.223239 59 5360ft 131kts
30-Dec-19 10:19 35.084797 -116.182307 59 4271ft 122kts
30-Dec-19 10:20 35.100865 -116.147767 59 3285ft 119kts
30-Dec-19 10:21 35.117539 -116.112400 59 2277ft 120kts
30-Dec-19 10:22 35.130243 -116.083228 67 2458ft 76kts
30-Dec-19 10:23 35.138180 -116.058194 69 2688ft 88kts
30-Dec-19 10:24 35.152681 -116.035119 42 2785ft 87kts
30-Dec-19 10:25 35.171579 -116.033486 336 3003ft 79kts
30-Dec-19 10:26 35.193529 -116.048883 335 2842ft 101kts
30-Dec-19 10:27 35.219881 -116.061674 349 2587ft 108kts
30-Dec-19 10:28 35.250804 -116.071257 348 1948ft 111kts
30-Dec-19 10:29 35.272763 -116.077508 351 1499ft 67kts
30-Dec-19 10:30 35.289267 -116.082189 352 921ft 14kts
30-Dec-19 10:31 35.287854 -116.081624 93 921ft 8kts
30-Dec-19 10:32 35.287686 -116.081227 256 922ft 0kts
30-Dec-19 10:33 35.287686 -116.081227 256 922ft 0kts

Navigation Log

Ident Type
Flight plan parsing failed, navigation log unavailable